Time;durP1;ratioP1;P1;durP2;ratioP2;P2;SDS_P1;SDS_P2;PMS_P1;PMS_P2;Temp;Humidity;BMP_temperature;BMP_pressure;BME280_temperature;BME280_humidity;BME280_pressure;Samples;Min_cycle;Max_cycle;Signal;HPM_P1;HPM_P2
2021/09/05 00:01:23;;;;;;;7.73;6.90;;;;;;;;;;6371211;22;20378;-72
2021/09/05 00:03:49;;;;;;;7.73;7.00;;;;;;;;;;6382309;22;20430;-71
2021/09/05 00:06:15;;;;;;;7.50;6.47;;;;;;;;;;6365554;22;20889;-71
2021/09/05 00:11:44;;;;;;;8.17;6.70;;;;;;;;;;6381368;22;20428;-71
2021/09/05 00:14:10;;;;;;;6.87;6.17;;;;;;;;;;6371177;22;20368;-71
2021/09/05 00:16:36;;;;;;;7.23;6.50;;;;;;;;;;6371161;22;20371;-71
2021/09/05 00:19:02;;;;;;;9.90;6.80;;;;;;;;;;6371349;22;20686;-72
2021/09/05 00:21:28;;;;;;;8.80;7.90;;;;;;;;;;6370968;22;20367;-71
2021/09/05 00:26:58;;;;;;;8.80;7.47;;;;;;;;;;6381111;22;20441;-71
2021/09/05 00:29:25;;;;;;;10.53;7.50;;;;;;;;;;6371257;22;20699;-71
2021/09/05 00:31:52;;;;;;;10.10;7.17;;;;;;;;;;6381975;22;20383;-70
2021/09/05 00:34:18;;;;;;;12.60;8.70;;;;;;;;;;6371803;22;20374;-72
2021/09/05 00:36:43;;;;;;;7.90;6.77;;;;;;;;;;6371041;22;20378;-71
2021/09/05 00:42:21;;;;;;;8.30;7.40;;;;;;;;;;6381095;22;20417;-71
2021/09/05 00:44:47;;;;;;;11.43;7.67;;;;;;;;;;6370960;22;20387;-72
2021/09/05 00:47:13;;;;;;;10.83;7.77;;;;;;;;;;6370816;22;20375;-72
2021/09/05 00:49:39;;;;;;;8.33;7.53;;;;;;;;;;6370886;22;20388;-72
2021/09/05 00:52:05;;;;;;;10.40;7.27;;;;;;;;;;6370652;22;20699;-72
2021/09/05 00:57:35;;;;;;;7.13;6.43;;;;;;;;;;6381182;22;20389;-72
2021/09/05 01:00:01;;;;;;;8.90;7.87;;;;;;;;;;6342812;22;20395;-71
2021/09/05 01:02:27;;;;;;;8.33;7.40;;;;;;;;;;6370576;22;20457;-72
2021/09/05 01:04:53;;;;;;;7.60;6.80;;;;;;;;;;6370674;22;20390;-72
2021/09/05 01:07:18;;;;;;;7.87;6.90;;;;;;;;;;6381277;22;20383;-72
2021/09/05 01:12:48;;;;;;;9.23;7.33;;;;;;;;;;6381079;22;20475;-72
2021/09/05 01:15:14;;;;;;;8.77;7.97;;;;;;;;;;6370433;22;20826;-72
2021/09/05 01:17:40;;;;;;;7.93;7.23;;;;;;;;;;6381445;22;20359;-71
2021/09/05 01:20:07;;;;;;;7.73;6.80;;;;;;;;;;6381465;22;20410;-72
2021/09/05 01:22:33;;;;;;;8.90;8.00;;;;;;;;;;6370376;22;20423;-72
2021/09/05 01:28:03;;;;;;;9.20;8.23;;;;;;;;;;6317866;22;20726;-72
2021/09/05 01:30:29;;;;;;;10.83;8.37;;;;;;;;;;6307461;22;20472;-72
2021/09/05 01:32:55;;;;;;;10.27;8.27;;;;;;;;;;6307629;22;20958;-72
2021/09/05 01:35:21;;;;;;;9.43;7.70;;;;;;;;;;6307554;22;20381;-72
2021/09/05 01:37:48;;;;;;;6.93;6.20;;;;;;;;;;6307395;22;20923;-71
2021/09/05 01:43:17;;;;;;;10.30;7.47;;;;;;;;;;6317659;22;20435;-72
2021/09/05 01:45:43;;;;;;;6.97;6.33;;;;;;;;;;6307294;22;20438;-71
2021/09/05 01:48:09;;;;;;;8.33;7.10;;;;;;;;;;6317737;22;20756;-71
2021/09/05 01:50:35;;;;;;;8.13;7.33;;;;;;;;;;6307396;22;20387;-71
2021/09/05 01:53:01;;;;;;;9.90;7.30;;;;;;;;;;6307231;22;20476;-72
2021/09/05 01:58:30;;;;;;;7.77;6.97;;;;;;;;;;6317622;22;20379;-72
2021/09/05 02:00:56;;;;;;;10.83;7.77;;;;;;;;;;6317913;22;20389;-71
2021/09/05 02:03:22;;;;;;;8.30;7.43;;;;;;;;;;6307343;22;20452;-72
2021/09/05 02:05:48;;;;;;;8.77;7.60;;;;;;;;;;6307221;22;20369;-72
2021/09/05 02:08:14;;;;;;;9.60;7.20;;;;;;;;;;6307260;22;20672;-72
2021/09/05 02:13:44;;;;;;;9.90;8.03;;;;;;;;;;6317653;22;20372;-72
2021/09/05 02:16:10;;;;;;;8.37;7.50;;;;;;;;;;6307130;22;20381;-72
2021/09/05 02:18:36;;;;;;;8.43;7.60;;;;;;;;;;6307217;22;20373;-72
2021/09/05 02:21:02;;;;;;;9.60;7.47;;;;;;;;;;6317257;22;20384;-72
2021/09/05 02:23:28;;;;;;;7.50;6.80;;;;;;;;;;6317677;22;20452;-72
2021/09/05 02:28:57;;;;;;;8.50;6.97;;;;;;;;;;6380608;22;20416;-72
2021/09/05 02:31:23;;;;;;;7.20;6.50;;;;;;;;;;6369868;22;20397;-72
2021/09/05 02:33:49;;;;;;;9.10;7.30;;;;;;;;;;6370019;22;20674;-72
2021/09/05 02:36:15;;;;;;;9.60;7.23;;;;;;;;;;6380677;22;20381;-71
2021/09/05 02:44:29;;;;;;;8.80;7.77;;;;;;;;;;6380520;22;20844;-72
2021/09/05 02:46:55;;;;;;;11.40;7.60;;;;;;;;;;6369843;22;20454;-72
2021/09/05 02:49:21;;;;;;;8.77;7.27;;;;;;;;;;6380635;22;20836;-72
2021/09/05 02:51:47;;;;;;;7.20;6.27;;;;;;;;;;6380755;22;20375;-72
2021/09/05 02:54:13;;;;;;;9.83;7.67;;;;;;;;;;6380762;22;20827;-72
2021/09/05 02:56:39;;;;;;;8.30;6.90;;;;;;;;;;6369718;22;20378;-72
2021/09/05 02:59:05;;;;;;;7.47;6.40;;;;;;;;;;6370187;22;20387;-70
2021/09/05 03:01:31;;;;;;;10.33;8.30;;;;;;;;;;6370022;22;20372;-72
2021/09/05 03:03:57;;;;;;;7.90;7.10;;;;;;;;;;6370043;22;20418;-73
2021/09/05 03:06:23;;;;;;;7.93;7.20;;;;;;;;;;6342101;22;20430;-73
2021/09/05 03:08:49;;;;;;;8.37;7.47;;;;;;;;;;6370050;22;20380;-71
2021/09/05 03:14:19;;;;;;;9.23;6.33;;;;;;;;;;6380523;22;20401;-72
2021/09/05 03:16:45;;;;;;;7.40;6.67;;;;;;;;;;6369947;22;20686;-72
2021/09/05 03:19:11;;;;;;;8.30;7.20;;;;;;;;;;6370157;22;20382;-72
2021/09/05 03:21:38;;;;;;;8.50;6.67;;;;;;;;;;6369924;22;20371;-73
2021/09/05 03:24:04;;;;;;;8.90;6.47;;;;;;;;;;6380658;22;20757;-72
2021/09/05 03:26:30;;;;;;;7.90;7.10;;;;;;;;;;6369211;22;20426;-73
2021/09/05 03:28:56;;;;;;;10.00;6.80;;;;;;;;;;6369924;22;20889;-71
2021/09/05 03:31:22;;;;;;;12.53;6.97;;;;;;;;;;6370206;22;20360;-72
2021/09/05 03:33:48;;;;;;;9.50;6.90;;;;;;;;;;6371811;22;20455;-71
2021/09/05 03:36:14;;;;;;;7.70;6.60;;;;;;;;;;6382472;22;20367;-71
2021/09/05 03:38:40;;;;;;;7.93;6.97;;;;;;;;;;6371492;22;20879;-72
2021/09/05 03:44:09;;;;;;;7.20;6.40;;;;;;;;;;6382296;22;20420;-72
2021/09/05 03:46:35;;;;;;;7.70;6.57;;;;;;;;;;6371582;22;20363;-70
2021/09/05 03:49:01;;;;;;;8.33;7.53;;;;;;;;;;6371776;22;20376;-72
2021/09/05 03:51:27;;;;;;;8.07;7.13;;;;;;;;;;6382355;22;20406;-71
2021/09/05 03:53:53;;;;;;;11.67;9.20;;;;;;;;;;6371539;22;20698;-70
2021/09/05 03:59:22;;;;;;;8.13;7.20;;;;;;;;;;6382138;22;20382;-73
2021/09/05 04:01:48;;;;;;;10.90;8.57;;;;;;;;;;6370930;22;20376;-72
2021/09/05 04:04:14;;;;;;;9.30;8.27;;;;;;;;;;6371397;22;20822;-73
2021/09/05 04:06:43;;;;;;;9.13;7.53;;;;;;;;;;6371349;22;20383;-74
2021/09/05 04:09:17;;;;;;;9.13;8.20;;;;;;;;;;6382280;22;20382;-71
2021/09/05 04:14:46;;;;;;;12.33;8.63;;;;;;;;;;6376155;22;20378;-72
2021/09/05 04:17:12;;;;;;;10.03;9.03;;;;;;;;;;6371233;22;20371;-71
2021/09/05 04:19:38;;;;;;;11.10;8.90;;;;;;;;;;6371137;22;20393;-71
2021/09/05 04:22:05;;;;;;;12.03;9.57;;;;;;;;;;6370828;22;20411;-71
2021/09/05 04:24:32;;;;;;;10.10;8.13;;;;;;;;;;6381916;22;20394;-72
2021/09/05 04:26:58;;;;;;;10.20;9.20;;;;;;;;;;6373623;22;20517;-71
2021/09/05 04:29:24;;;;;;;10.03;8.87;;;;;;;;;;6381481;22;20690;-71
2021/09/05 04:31:50;;;;;;;10.27;9.17;;;;;;;;;;6370739;22;20403;-72
2021/09/05 04:34:16;;;;;;;9.83;8.83;;;;;;;;;;6371064;22;20375;-72
2021/09/05 04:36:42;;;;;;;11.63;8.93;;;;;;;;;;6370775;22;20625;-71
2021/09/05 04:39:08;;;;;;;13.67;9.13;;;;;;;;;;6381809;22;20387;-73
2021/09/05 04:44:38;;;;;;;10.33;9.10;;;;;;;;;;6381146;22;20476;-72
2021/09/05 04:47:05;;;;;;;10.43;9.33;;;;;;;;;;6370840;22;20371;-72
2021/09/05 04:49:31;;;;;;;10.50;8.27;;;;;;;;;;6381729;22;20383;-71
2021/09/05 04:51:57;;;;;;;10.23;9.00;;;;;;;;;;6370542;22;20466;-72
2021/09/05 04:54:23;;;;;;;9.50;8.10;;;;;;;;;;6381635;22;20403;-72
2021/09/05 04:59:52;;;;;;;9.90;8.40;;;;;;;;;;6381362;22;20373;-72
2021/09/05 05:02:19;;;;;;;11.73;8.87;;;;;;;;;;6370694;22;20462;-72
2021/09/05 05:04:45;;;;;;;13.00;9.47;;;;;;;;;;6381530;22;20371;-73
2021/09/05 05:07:11;;;;;;;12.83;10.20;;;;;;;;;;6370633;22;20411;-71
2021/09/05 05:09:43;;;;;;;12.13;8.40;;;;;;;;;;6370739;22;20366;-71
2021/09/05 05:12:09;;;;;;;12.37;9.17;;;;;;;;;;6381080;22;20691;-71
2021/09/05 05:14:35;;;;;;;12.30;8.20;;;;;;;;;;6381105;22;20399;-71
2021/09/05 05:17:01;;;;;;;12.80;8.77;;;;;;;;;;6370627;22;20387;-71
2021/09/05 05:19:27;;;;;;;9.60;8.60;;;;;;;;;;6381579;22;20371;-73
2021/09/05 05:21:53;;;;;;;9.60;8.27;;;;;;;;;;6381225;22;20378;-71
2021/09/05 05:24:19;;;;;;;9.67;7.93;;;;;;;;;;6370575;22;20486;-71
2021/09/05 05:26:45;;;;;;;10.27;7.87;;;;;;;;;;6369884;22;20454;-71
2021/09/05 05:29:11;;;;;;;11.03;8.80;;;;;;;;;;6370755;22;20367;-72
2021/09/05 05:31:37;;;;;;;10.30;9.23;;;;;;;;;;6370329;22;20686;-72
2021/09/05 05:34:03;;;;;;;10.47;8.00;;;;;;;;;;6370513;22;20416;-71
2021/09/05 05:36:29;;;;;;;12.00;8.10;;;;;;;;;;6370345;22;20364;-71
2021/09/05 05:38:55;;;;;;;8.70;7.77;;;;;;;;;;6381277;22;20383;-72
2021/09/05 05:41:21;;;;;;;8.47;6.87;;;;;;;;;;6369850;22;20375;-72
2021/09/05 05:43:47;;;;;;;9.03;8.13;;;;;;;;;;6381068;22;20434;-72
2021/09/05 05:46:13;;;;;;;9.63;8.60;;;;;;;;;;6381021;22;20373;-71
2021/09/05 05:48:39;;;;;;;10.40;8.70;;;;;;;;;;6370233;22;20367;-71
2021/09/05 05:51:05;;;;;;;12.90;8.90;;;;;;;;;;6370084;22;20367;-71
2021/09/05 05:53:31;;;;;;;11.03;8.17;;;;;;;;;;6380638;22;20860;-71
2021/09/05 05:55:58;;;;;;;12.60;10.10;;;;;;;;;;6369822;22;20370;-72
2021/09/05 05:58:24;;;;;;;12.67;9.53;;;;;;;;;;6370140;22;20695;-71
2021/09/05 06:00:49;;;;;;;11.63;8.93;;;;;;;;;;6370549;22;20360;-71
2021/09/05 06:03:15;;;;;;;11.30;10.10;;;;;;;;;;6368778;22;20959;-72
2021/09/05 06:05:41;;;;;;;9.63;8.60;;;;;;;;;;6376859;22;20723;-72
2021/09/05 06:08:07;;;;;;;10.10;9.13;;;;;;;;;;6361047;22;20386;-72
2021/09/05 06:10:33;;;;;;;10.63;9.50;;;;;;;;;;6379248;22;20425;-72
2021/09/05 06:12:59;;;;;;;11.90;8.73;;;;;;;;;;6370278;22;20387;-70
2021/09/05 06:15:26;;;;;;;11.17;8.77;;;;;;;;;;6342032;22;20400;-71
2021/09/05 06:17:52;;;;;;;13.70;8.90;;;;;;;;;;6370002;22;20393;-71
2021/09/05 06:20:18;;;;;;;10.73;9.40;;;;;;;;;;6369918;22;20363;-71
2021/09/05 06:22:44;;;;;;;11.27;8.63;;;;;;;;;;6369806;22;20801;-71
2021/09/05 06:25:10;;;;;;;12.23;8.80;;;;;;;;;;6369846;22;20423;-71
2021/09/05 06:30:39;;;;;;;9.90;8.73;;;;;;;;;;6380248;22;20366;-71
2021/09/05 06:33:05;;;;;;;8.77;7.87;;;;;;;;;;6380372;22;20368;-71
2021/09/05 06:35:31;;;;;;;10.30;8.70;;;;;;;;;;6369650;22;20360;-71
2021/09/05 06:37:57;;;;;;;9.10;7.33;;;;;;;;;;6380659;22;20402;-71
2021/09/05 06:40:23;;;;;;;9.37;8.47;;;;;;;;;;6341662;22;20387;-70
2021/09/05 06:45:52;;;;;;;13.03;9.53;;;;;;;;;;6380368;22;20405;-71
2021/09/05 06:48:18;;;;;;;10.93;9.83;;;;;;;;;;6369803;22;20368;-71
2021/09/05 06:50:44;;;;;;;13.57;9.20;;;;;;;;;;6369757;22;20403;-71
2021/09/05 06:53:10;;;;;;;9.27;8.37;;;;;;;;;;6380391;22;20401;-71
2021/09/05 06:55:36;;;;;;;11.20;10.10;;;;;;;;;;6370142;22;20371;-72
2021/09/05 06:58:02;;;;;;;18.97;14.50;;;;;;;;;;6369667;22;20799;-72
2021/09/05 07:00:28;;;;;;;12.53;10.40;;;;;;;;;;6369638;22;20382;-72
2021/09/05 07:02:54;;;;;;;9.20;8.40;;;;;;;;;;6380412;22;20490;-72
2021/09/05 07:05:20;;;;;;;12.37;9.93;;;;;;;;;;6369583;22;20881;-72
2021/09/05 07:07:46;;;;;;;12.60;8.80;;;;;;;;;;6343514;22;20448;-71
2021/09/05 07:10:12;;;;;;;9.23;8.33;;;;;;;;;;6379145;22;20383;-72
2021/09/05 07:15:42;;;;;;;8.77;7.97;;;;;;;;;;6380421;22;20694;-71
2021/09/05 07:18:08;;;;;;;8.90;8.00;;;;;;;;;;6369994;22;20379;-71
2021/09/05 07:20:34;;;;;;;9.40;8.33;;;;;;;;;;6369722;22;20367;-71
2021/09/05 07:23:00;;;;;;;10.73;7.90;;;;;;;;;;6369763;22;20975;-71
2021/09/05 07:25:27;;;;;;;9.00;7.70;;;;;;;;;;6369145;22;20383;-71
2021/09/05 07:30:56;;;;;;;8.57;7.67;;;;;;;;;;6380096;22;20427;-72
2021/09/05 07:33:23;;;;;;;8.60;7.70;;;;;;;;;;6364524;22;20395;-71
2021/09/05 07:35:49;;;;;;;9.40;8.50;;;;;;;;;;6369654;22;20422;-71
2021/09/05 07:38:15;;;;;;;9.07;8.17;;;;;;;;;;6382053;22;20377;-72
2021/09/05 07:40:41;;;;;;;10.70;9.37;;;;;;;;;;6381739;22;20383;-71
2021/09/05 07:46:10;;;;;;;10.50;9.40;;;;;;;;;;6380758;22;20389;-71
2021/09/05 07:48:36;;;;;;;9.27;8.37;;;;;;;;;;6342883;22;20497;-72
2021/09/05 07:51:02;;;;;;;12.90;9.30;;;;;;;;;;6377831;22;20374;-71
2021/09/05 07:53:28;;;;;;;9.60;8.60;;;;;;;;;;6379233;22;20363;-72
2021/09/05 07:55:54;;;;;;;11.00;9.90;;;;;;;;;;6378981;22;20689;-71
2021/09/05 08:01:24;;;;;;;7.97;7.23;;;;;;;;;;6381101;22;20795;-72
2021/09/05 08:03:51;;;;;;;11.33;7.70;;;;;;;;;;6370512;22;20465;-72
2021/09/05 08:06:17;;;;;;;8.43;7.70;;;;;;;;;;6370762;22;20428;-72
2021/09/05 08:08:43;;;;;;;8.23;7.47;;;;;;;;;;6370893;22;20380;-72
2021/09/05 08:11:09;;;;;;;8.50;7.70;;;;;;;;;;6376552;22;20899;-72
2021/09/05 08:16:38;;;;;;;10.50;8.60;;;;;;;;;;6379187;22;20895;-71
2021/09/05 08:19:05;;;;;;;8.40;7.63;;;;;;;;;;6368487;22;20367;-72
2021/09/05 08:21:31;;;;;;;8.53;7.63;;;;;;;;;;6379044;22;20372;-72
2021/09/05 08:23:57;;;;;;;8.03;7.33;;;;;;;;;;6379104;22;20426;-72
2021/09/05 08:26:26;;;;;;;6.83;6.13;;;;;;;;;;6378532;22;20472;-71
2021/09/05 08:28:52;;;;;;;7.33;6.60;;;;;;;;;;6379516;22;20372;-72
2021/09/05 08:31:19;;;;;;;7.20;6.10;;;;;;;;;;6378715;22;20366;-72
2021/09/05 08:33:45;;;;;;;8.43;7.53;;;;;;;;;;6378142;22;20459;-72
2021/09/05 08:36:12;;;;;;;7.97;7.27;;;;;;;;;;6378817;22;20363;-72
2021/09/05 08:38:38;;;;;;;8.53;7.73;;;;;;;;;;6368597;22;20378;-72
2021/09/05 08:41:04;;;;;;;8.90;8.10;;;;;;;;;;6367557;22;20383;-72
2021/09/05 08:46:34;;;;;;;7.97;7.27;;;;;;;;;;6378625;22;20462;-71
2021/09/05 08:49:03;;;;;;;10.20;7.67;;;;;;;;;;6378810;22;20432;-71
2021/09/05 08:51:29;;;;;;;7.90;7.20;;;;;;;;;;6378042;22;20367;-71
2021/09/05 08:53:55;;;;;;;8.27;7.33;;;;;;;;;;6378710;22;20397;-71
2021/09/05 08:56:21;;;;;;;6.70;6.10;;;;;;;;;;6378165;22;20382;-72
2021/09/05 09:01:54;;;;;;;7.23;6.63;;;;;;;;;;6378701;22;20378;-72
2021/09/05 09:04:21;;;;;;;7.03;6.40;;;;;;;;;;6378876;22;20414;-72
2021/09/05 09:06:47;;;;;;;6.63;6.03;;;;;;;;;;6378305;22;20383;-71
2021/09/05 09:09:13;;;;;;;7.63;6.83;;;;;;;;;;6368345;22;20415;-71
2021/09/05 09:11:48;;;;;;;7.63;6.93;;;;;;;;;;6381005;22;20364;-71
2021/09/05 09:14:14;;;;;;;7.57;6.97;;;;;;;;;;6368986;22;20406;-71
2021/09/05 09:16:40;;;;;;;7.00;6.40;;;;;;;;;;6368951;22;20420;-72
2021/09/05 09:19:06;;;;;;;6.97;6.27;;;;;;;;;;6379503;22;20371;-71
2021/09/05 09:21:39;;;;;;;6.93;6.33;;;;;;;;;;6379362;22;20378;-71
2021/09/05 09:24:22;;;;;;;6.90;6.30;;;;;;;;;;6381085;22;20430;-72
2021/09/05 09:27:03;;;;;;;7.17;6.50;;;;;;;;;;6369723;22;20434;-73
2021/09/05 09:29:29;;;;;;;6.63;5.97;;;;;;;;;;6380697;22;20409;-73
2021/09/05 09:32:00;;;;;;;6.60;6.03;;;;;;;;;;6370231;22;20458;-73
2021/09/05 09:34:26;;;;;;;6.87;6.27;;;;;;;;;;6370680;22;20375;-73
2021/09/05 09:36:58;;;;;;;6.23;5.73;;;;;;;;;;6380885;22;20379;-72
2021/09/05 09:39:27;;;;;;;9.33;6.57;;;;;;;;;;6343025;22;20754;-73
2021/09/05 09:41:53;;;;;;;8.23;6.80;;;;;;;;;;6379678;22;20830;-73
2021/09/05 09:44:19;;;;;;;7.40;6.03;;;;;;;;;;6381066;22;20761;-74
2021/09/05 09:46:45;;;;;;;6.17;5.57;;;;;;;;;;6380900;22;20790;-74
2021/09/05 09:49:12;;;;;;;7.10;6.40;;;;;;;;;;6381037;22;20394;-74
2021/09/05 09:51:39;;;;;;;7.90;7.10;;;;;;;;;;6380538;22;20375;-74
2021/09/05 09:54:05;;;;;;;6.30;5.80;;;;;;;;;;6380949;22;20573;-74
2021/09/05 09:56:31;;;;;;;7.37;6.77;;;;;;;;;;6381771;22;20834;-73
2021/09/05 10:02:01;;;;;;;6.40;5.80;;;;;;;;;;6380716;22;20386;-74
2021/09/05 10:04:28;;;;;;;6.53;5.93;;;;;;;;;;6380636;22;20382;-74
2021/09/05 10:06:55;;;;;;;6.10;5.50;;;;;;;;;;6341927;22;20868;-74
2021/09/05 10:09:21;;;;;;;5.33;4.87;;;;;;;;;;6380964;22;20415;-73
2021/09/05 10:11:47;;;;;;;6.67;6.00;;;;;;;;;;6380224;22;20378;-73
2021/09/05 10:17:17;;;;;;;5.50;5.00;;;;;;;;;;6381075;22;20390;-74
2021/09/05 10:19:43;;;;;;;5.07;4.67;;;;;;;;;;6380636;22;20367;-74
2021/09/05 10:22:10;;;;;;;5.87;5.37;;;;;;;;;;6380402;22;20375;-74
2021/09/05 10:24:47;;;;;;;5.53;5.03;;;;;;;;;;6369965;22;20415;-74
2021/09/05 10:27:14;;;;;;;5.00;4.50;;;;;;;;;;6379959;22;20422;-74
2021/09/05 10:30:00;;;;;;;9.40;4.57;;;;;;;;;;6342673;22;20395;-74
2021/09/05 10:32:41;;;;;;;5.60;5.10;;;;;;;;;;6380287;22;20467;-74
2021/09/05 10:35:25;;;;;;;5.97;5.43;;;;;;;;;;6380481;22;20897;-74
2021/09/05 10:38:10;;;;;;;5.93;5.33;;;;;;;;;;6370233;22;20474;-74
2021/09/05 10:40:43;;;;;;;4.70;4.37;;;;;;;;;;6380326;22;20374;-74
2021/09/05 10:43:09;;;;;;;7.30;5.47;;;;;;;;;;6382369;22;20455;-74
2021/09/05 10:45:36;;;;;;;5.27;4.73;;;;;;;;;;6382352;22;20702;-75
2021/09/05 10:48:02;;;;;;;5.53;4.23;;;;;;;;;;6382736;22;20378;-75
2021/09/05 10:50:50;;;;;;;5.20;4.70;;;;;;;;;;6372238;22;20667;-74
2021/09/05 10:53:18;;;;;;;4.70;4.17;;;;;;;;;;6371822;22;20830;-73
2021/09/05 10:56:02;;;;;;;4.43;4.13;;;;;;;;;;6382064;22;20849;-73
2021/09/05 10:58:55;;;;;;;4.97;4.47;;;;;;;;;;6369065;22;20864;-74
2021/09/05 11:01:22;;;;;;;4.83;4.43;;;;;;;;;;6365096;22;20397;-74
2021/09/05 11:04:07;;;;;;;4.80;4.40;;;;;;;;;;6343593;22;20442;-74
2021/09/05 11:06:33;;;;;;;5.00;4.50;;;;;;;;;;6382481;22;20453;-75
2021/09/05 11:09:21;;;;;;;4.73;4.30;;;;;;;;;;6372184;22;20384;-74
2021/09/05 11:14:55;;;;;;;6.80;4.70;;;;;;;;;;6382500;22;20714;-73
2021/09/05 11:17:23;;;;;;;4.50;4.10;;;;;;;;;;6382331;22;20688;-74
2021/09/05 11:19:50;;;;;;;5.87;4.80;;;;;;;;;;6382472;22;20362;-75
2021/09/05 11:22:17;;;;;;;4.53;4.13;;;;;;;;;;6382020;22;20363;-74
2021/09/05 11:24:43;;;;;;;6.10;4.60;;;;;;;;;;6372026;22;20483;-74
2021/09/05 11:27:11;;;;;;;5.00;4.63;;;;;;;;;;6371322;22;20749;-73
2021/09/05 11:29:37;;;;;;;4.00;3.60;;;;;;;;;;6343783;22;20409;-74
2021/09/05 11:32:07;;;;;;;7.80;5.00;;;;;;;;;;6382099;22;20412;-74
2021/09/05 11:34:34;;;;;;;6.90;4.20;;;;;;;;;;6382157;22;20427;-74
2021/09/05 11:37:00;;;;;;;3.73;3.43;;;;;;;;;;6382092;22;20371;-74
2021/09/05 11:39:26;;;;;;;4.90;3.93;;;;;;;;;;6382207;22;20375;-74
2021/09/05 11:41:53;;;;;;;5.33;4.93;;;;;;;;;;6381756;22;20364;-74
2021/09/05 11:44:34;;;;;;;5.23;4.67;;;;;;;;;;6381827;22;20423;-74
2021/09/05 11:47:07;;;;;;;5.00;4.50;;;;;;;;;;6382082;22;20461;-74
2021/09/05 11:49:34;;;;;;;4.27;3.93;;;;;;;;;;6381865;22;20359;-74
2021/09/05 11:52:00;;;;;;;4.30;3.97;;;;;;;;;;6371055;22;20451;-74
2021/09/05 11:54:25;;;;;;;5.23;4.80;;;;;;;;;;6382107;22;20460;-74
2021/09/05 11:56:51;;;;;;;4.97;4.50;;;;;;;;;;6381565;22;20367;-74
2021/09/05 11:59:17;;;;;;;4.70;4.03;;;;;;;;;;6382057;22;20809;-73
2021/09/05 12:01:50;;;;;;;4.60;4.20;;;;;;;;;;6381753;22;20416;-73
2021/09/05 12:04:17;;;;;;;4.43;4.03;;;;;;;;;;6381782;22;20429;-74
2021/09/05 12:06:43;;;;;;;5.13;4.00;;;;;;;;;;6381723;22;20446;-74
2021/09/05 12:09:09;;;;;;;5.70;4.23;;;;;;;;;;6381939;22;20841;-74
2021/09/05 12:11:54;;;;;;;4.67;4.37;;;;;;;;;;6381511;22;20371;-74
2021/09/05 12:14:33;;;;;;;5.40;4.90;;;;;;;;;;6381916;22;20444;-73
2021/09/05 12:16:59;;;;;;;4.03;3.63;;;;;;;;;;6343288;22;20691;-74
2021/09/05 12:19:25;;;;;;;4.77;4.17;;;;;;;;;;6381828;22;20420;-75
2021/09/05 12:21:58;;;;;;;5.23;4.73;;;;;;;;;;6371251;22;20691;-73
2021/09/05 12:24:25;;;;;;;4.87;4.33;;;;;;;;;;6382112;22;20747;-75
2021/09/05 12:26:51;;;;;;;5.53;4.50;;;;;;;;;;6374766;22;20454;-74
2021/09/05 12:29:29;;;;;;;8.00;5.07;;;;;;;;;;6386782;22;20383;-75
2021/09/05 12:32:00;;;;;;;5.87;4.80;;;;;;;;;;6382413;22;20364;-74
2021/09/05 12:34:42;;;;;;;5.03;4.53;;;;;;;;;;6370488;22;20390;-75
2021/09/05 12:37:18;;;;;;;4.63;4.23;;;;;;;;;;6381645;22;20696;-75
2021/09/05 12:39:44;;;;;;;4.87;4.47;;;;;;;;;;6370948;22;20373;-76
2021/09/05 12:42:12;;;;;;;4.10;3.77;;;;;;;;;;6381187;22;20380;-74
2021/09/05 12:44:42;;;;;;;5.10;4.57;;;;;;;;;;6370818;22;20842;-74
2021/09/05 12:47:08;;;;;;;4.77;4.23;;;;;;;;;;6342793;22;20914;-74
2021/09/05 12:49:40;;;;;;;4.53;4.10;;;;;;;;;;6381420;22;20371;-74
2021/09/05 12:52:10;;;;;;;4.70;4.30;;;;;;;;;;6371301;22;20375;-74
2021/09/05 12:54:39;;;;;;;4.60;4.20;;;;;;;;;;6370923;22;20383;-74
2021/09/05 12:57:06;;;;;;;4.97;4.47;;;;;;;;;;6370543;22;20475;-74
2021/09/05 12:59:32;;;;;;;4.83;4.40;;;;;;;;;;6381785;22;20821;-74
2021/09/05 13:01:58;;;;;;;4.80;4.40;;;;;;;;;;6381296;22;20378;-73
2021/09/05 13:04:24;;;;;;;5.17;4.77;;;;;;;;;;6380725;22;20423;-73
2021/09/05 13:06:50;;;;;;;4.40;4.10;;;;;;;;;;6381075;22;20359;-73
2021/09/05 13:09:16;;;;;;;4.70;4.30;;;;;;;;;;6381205;22;20372;-73
2021/09/05 13:11:47;;;;;;;3.80;3.47;;;;;;;;;;6380405;22;20397;-73
2021/09/05 13:14:13;;;;;;;4.40;4.00;;;;;;;;;;6370321;22;20382;-74
2021/09/05 13:16:39;;;;;;;5.57;4.93;;;;;;;;;;6370806;22;20383;-74
2021/09/05 13:19:05;;;;;;;5.53;4.30;;;;;;;;;;6370856;22;20705;-74
2021/09/05 13:21:31;;;;;;;4.37;4.07;;;;;;;;;;6381050;22;20364;-74
2021/09/05 13:23:57;;;;;;;4.50;4.07;;;;;;;;;;6370641;22;20775;-74
2021/09/05 13:26:24;;;;;;;4.90;4.40;;;;;;;;;;6370049;22;20433;-74
2021/09/05 13:28:52;;;;;;;4.83;4.43;;;;;;;;;;6370860;22;20387;-74
2021/09/05 13:31:19;;;;;;;4.70;4.30;;;;;;;;;;6370416;22;20451;-74
2021/09/05 13:33:45;;;;;;;5.67;4.70;;;;;;;;;;6370718;22;20383;-74
2021/09/05 13:36:11;;;;;;;4.47;4.17;;;;;;;;;;6380945;22;20837;-74
2021/09/05 13:38:37;;;;;;;4.53;4.13;;;;;;;;;;6370196;22;20390;-74
2021/09/05 13:41:03;;;;;;;4.67;4.27;;;;;;;;;;6380722;22;20367;-74
2021/09/05 13:43:29;;;;;;;4.20;3.90;;;;;;;;;;6380655;22;20419;-74
2021/09/05 13:45:55;;;;;;;4.60;4.20;;;;;;;;;;6370576;22;20367;-74
2021/09/05 13:48:21;;;;;;;5.33;4.20;;;;;;;;;;6370767;22;20379;-74
2021/09/05 13:50:47;;;;;;;4.50;3.77;;;;;;;;;;6342471;22;20751;-73
2021/09/05 13:53:13;;;;;;;4.50;4.10;;;;;;;;;;6370488;22;20414;-74
2021/09/05 13:55:39;;;;;;;5.50;5.00;;;;;;;;;;6380647;22;20367;-73
2021/09/05 13:58:05;;;;;;;4.23;3.93;;;;;;;;;;6380768;22;20383;-74
2021/09/05 14:00:31;;;;;;;4.57;4.17;;;;;;;;;;6380722;22;20686;-74
2021/09/05 14:02:57;;;;;;;4.93;4.53;;;;;;;;;;6380682;22;20407;-74
2021/09/05 14:05:23;;;;;;;4.60;3.87;;;;;;;;;;6380766;22;20371;-74
2021/09/05 14:07:49;;;;;;;7.73;3.80;;;;;;;;;;6380755;22;20719;-74
2021/09/05 14:10:15;;;;;;;5.77;4.00;;;;;;;;;;6380549;22;20367;-73
2021/09/05 14:18:30;;;;;;;4.90;3.70;;;;;;;;;;6380795;22;20419;-74
2021/09/05 14:20:56;;;;;;;5.10;3.47;;;;;;;;;;6380713;22;20355;-74
2021/09/05 14:23:21;;;;;;;4.80;4.17;;;;;;;;;;6380587;22;20502;-74
2021/09/05 14:25:48;;;;;;;4.23;3.83;;;;;;;;;;6380266;22;20881;-74
2021/09/05 14:28:21;;;;;;;4.40;3.70;;;;;;;;;;6380368;22;20379;-75
2021/09/05 14:31:00;;;;;;;4.40;3.23;;;;;;;;;;6380571;22;20364;-75
2021/09/05 14:50:01;;;;;;;4.07;3.53;;;;;;;;;;6380658;22;20428;-74
2021/09/05 14:55:07;;;;;;;4.60;4.20;;;;;;;;;;6380509;22;20526;-73
2021/09/05 14:57:33;;;;;;;3.20;3.00;;;;;;;;;;6380179;22;20858;-74
2021/09/05 15:00:02;;;;;;;5.10;4.10;;;;;;;;;;6379616;22;20374;-74
2021/09/05 15:02:32;;;;;;;4.20;3.60;;;;;;;;;;6372438;22;20506;-74
2021/09/05 15:16:06;;;;;;;4.27;3.87;;;;;;;;;;6380305;22;20511;-74
2021/09/05 15:18:35;;;;;;;4.57;4.17;;;;;;;;;;6380176;22;20446;-74
2021/09/05 15:21:03;;;;;;;3.63;3.23;;;;;;;;;;6380187;22;20442;-74
2021/09/05 15:23:31;;;;;;;3.87;3.57;;;;;;;;;;6380141;22;20414;-74
2021/09/05 15:25:57;;;;;;;4.07;3.60;;;;;;;;;;6369554;22;20925;-74
2021/09/05 15:50:49;;;;;;;4.37;3.63;;;;;;;;;;6381909;22;20386;-75
2021/09/05 15:53:34;;;;;;;4.57;4.17;;;;;;;;;;6371751;22;20694;-74
2021/09/05 15:56:02;;;;;;;4.13;3.83;;;;;;;;;;6381721;22;20363;-73
2021/09/05 15:58:30;;;;;;;3.60;3.30;;;;;;;;;;6381769;22;20367;-74
2021/09/05 16:01:05;;;;;;;3.70;3.40;;;;;;;;;;6381965;22;20378;-73
2021/09/05 16:03:37;;;;;;;7.83;4.77;;;;;;;;;;6381611;22;20501;-73
2021/09/05 16:17:03;;;;;;;4.70;4.20;;;;;;;;;;6381299;22;20440;-72
2021/09/05 16:19:30;;;;;;;4.90;4.37;;;;;;;;;;6342778;22;20395;-70
2021/09/05 16:21:56;;;;;;;4.57;4.10;;;;;;;;;;6370974;22;20398;-70
2021/09/05 16:24:22;;;;;;;5.20;3.93;;;;;;;;;;6370855;22;20745;-70
2021/09/05 16:26:49;;;;;;;4.63;3.90;;;;;;;;;;6380840;22;20505;-70
2021/09/05 16:29:26;;;;;;;3.90;3.23;;;;;;;;;;6370584;22;20379;-70
2021/09/05 16:31:53;;;;;;;5.17;4.27;;;;;;;;;;6370891;22;20367;-70
2021/09/05 16:34:22;;;;;;;5.37;4.10;;;;;;;;;;6370574;22;20836;-70
2021/09/05 16:37:14;;;;;;;3.60;3.30;;;;;;;;;;6370463;22;20709;-70
2021/09/05 16:42:39;;;;;;;4.30;3.50;;;;;;;;;;6294688;22;20849;-72
2021/09/05 16:45:06;;;;;;;4.33;3.93;;;;;;;;;;6381256;22;20379;-72
2021/09/05 16:47:34;;;;;;;6.00;4.37;;;;;;;;;;6370866;22;20466;-71
2021/09/05 16:50:00;;;;;;;4.13;3.77;;;;;;;;;;6343009;22;20395;-70
2021/09/05 16:52:26;;;;;;;5.50;3.60;;;;;;;;;;6370850;22;20858;-71
2021/09/05 16:54:52;;;;;;;6.43;3.57;;;;;;;;;;6381493;22;20741;-71
2021/09/05 16:57:18;;;;;;;5.10;3.53;;;;;;;;;;6381193;22;20375;-72
2021/09/05 16:59:44;;;;;;;3.77;3.47;;;;;;;;;;6371216;22;20738;-71
2021/09/05 17:02:10;;;;;;;4.00;3.63;;;;;;;;;;6342867;22;20395;-71
2021/09/05 17:04:36;;;;;;;4.10;3.30;;;;;;;;;;6380644;22;20375;-71
2021/09/05 17:07:02;;;;;;;4.20;3.80;;;;;;;;;;6381011;22;20367;-71
2021/09/05 17:09:28;;;;;;;8.33;4.20;;;;;;;;;;6381369;22;20371;-70
2021/09/05 17:11:54;;;;;;;3.87;3.43;;;;;;;;;;6370931;22;20464;-71
2021/09/05 17:14:20;;;;;;;5.70;4.27;;;;;;;;;;6381298;22;20375;-70
2021/09/05 17:16:46;;;;;;;5.30;4.13;;;;;;;;;;6370931;22;20841;-70
2021/09/05 17:19:12;;;;;;;4.10;3.70;;;;;;;;;;6380840;22;20370;-70
2021/09/05 17:21:38;;;;;;;3.73;3.20;;;;;;;;;;6370851;22;20379;-70
2021/09/05 17:24:04;;;;;;;7.03;3.77;;;;;;;;;;6370390;22;20427;-70
2021/09/05 17:26:30;;;;;;;6.13;4.23;;;;;;;;;;6380710;22;20444;-71